Time;durP1;ratioP1;P1;durP2;ratioP2;P2;SDS_P1;SDS_P2;PMS_P1;PMS_P2;Temp;Humidity;BMP_temperature;BMP_pressure;BME280_temperature;BME280_humidity;BME280_pressure;Samples;Min_cycle;Max_cycle;Signal;HPM_P1;HPM_P2
2022/07/11 00:01:01;;;;;;;;;;;16.90;99.90;;;;;;4998057;28;20916;-85
2022/07/11 00:03:28;;;;;;;;;;;16.90;99.90;;;;;;5005545;28;19929;-86
2022/07/11 00:05:53;;;;;;;;;;;16.90;99.90;;;;;;4980115;28;19929;-86
2022/07/11 00:08:19;;;;;;;;;;;17.00;99.90;;;;;;4998873;28;19936;-85
2022/07/11 00:10:46;;;;;;;;;;;16.80;99.90;;;;;;5000570;28;19937;-85
2022/07/11 00:13:12;;;;;;;;;;;16.90;99.90;;;;;;4994668;28;20558;-86
2022/07/11 00:15:38;;;;;;;;;;;16.90;99.90;;;;;;4985093;28;20382;-86
2022/07/11 00:18:03;;;;;;;;;;;16.90;99.90;;;;;;4994838;28;20673;-85
2022/07/11 00:20:29;;;;;;;;;;;17.00;99.90;;;;;;5000439;28;19929;-85
2022/07/11 00:22:55;;;;;;;;;;;16.90;99.90;;;;;;4984684;28;19933;-86
2022/07/11 00:25:20;;;;;;;;;;;16.80;99.90;;;;;;4966553;28;19929;-85
2022/07/11 00:27:46;;;;;;;;;;;16.90;99.90;;;;;;5000735;28;19983;-85
2022/07/11 00:30:12;;;;;;;;;;;16.90;99.90;;;;;;5002222;28;19932;-84
2022/07/11 00:32:39;;;;;;;;;;;16.90;99.90;;;;;;5008693;28;19929;-84
2022/07/11 00:35:05;;;;;;;;;;;16.80;99.90;;;;;;5001304;28;19928;-86
2022/07/11 00:37:30;;;;;;;;;;;16.80;99.90;;;;;;4998817;28;19929;-86
2022/07/11 00:39:59;;;;;;;;;;;16.80;99.90;;;;;;4993837;28;19929;-86
2022/07/11 00:42:25;;;;;;;;;;;16.80;99.90;;;;;;4997609;28;19933;-85
2022/07/11 00:44:50;;;;;;;;;;;16.70;99.90;;;;;;4998517;28;19991;-85
2022/07/11 00:47:16;;;;;;;;;;;16.70;99.90;;;;;;5003041;28;20895;-85
2022/07/11 00:49:42;;;;;;;;;;;16.80;99.90;;;;;;4987132;28;20402;-85
2022/07/11 00:52:09;;;;;;;;;;;16.70;99.90;;;;;;4999050;28;20970;-85
2022/07/11 00:54:34;;;;;;;;;;;16.70;99.90;;;;;;5001057;28;20031;-86
2022/07/11 00:57:00;;;;;;;;;;;16.70;99.90;;;;;;4998325;28;20361;-85
2022/07/11 00:59:27;;;;;;;;;;;16.80;99.90;;;;;;4981167;28;20085;-85
2022/07/11 01:01:53;;;;;;;;;;;16.90;99.90;;;;;;4999055;28;19932;-85
2022/07/11 01:04:19;;;;;;;;;;;16.80;99.90;;;;;;4999332;28;19952;-86
2022/07/11 01:06:44;;;;;;;;;;;16.80;99.90;;;;;;5001865;28;19933;-86
2022/07/11 01:09:10;;;;;;;;;;;16.70;99.90;;;;;;4997950;28;19929;-85
2022/07/11 01:11:35;;;;;;;;;;;16.70;99.90;;;;;;5017775;28;19932;-86
2022/07/11 01:14:01;;;;;;;;;;;16.60;99.90;;;;;;5012017;28;19929;-85
2022/07/11 01:16:27;;;;;;;;;;;16.60;99.90;;;;;;4997745;28;20012;-85
2022/07/11 01:18:54;;;;;;;;;;;16.70;99.90;;;;;;4996236;28;19929;-85
2022/07/11 01:21:30;;;;;;;;;;;16.70;99.90;;;;;;4997412;28;20330;-84
2022/07/11 01:23:57;;;;;;;;;;;16.60;99.90;;;;;;4995249;28;19924;-85
2022/07/11 01:26:24;;;;;;;;;;;16.70;99.90;;;;;;4997294;28;19944;-86
2022/07/11 01:28:50;;;;;;;;;;;16.70;99.90;;;;;;4998096;28;20039;-85
2022/07/11 01:31:15;;;;;;;;;;;16.70;99.90;;;;;;4995103;28;19936;-85
2022/07/11 01:33:41;;;;;;;;;;;16.70;99.90;;;;;;4996513;28;19944;-87
2022/07/11 01:36:07;;;;;;;;;;;16.60;99.90;;;;;;4994896;28;20844;-86
2022/07/11 01:38:32;;;;;;;;;;;16.60;99.90;;;;;;4996287;28;19929;-85
2022/07/11 01:40:58;;;;;;;;;;;16.70;99.90;;;;;;4998945;28;19933;-85
2022/07/11 01:43:24;;;;;;;;;;;16.60;99.90;;;;;;5004842;28;20884;-85
2022/07/11 01:45:51;;;;;;;;;;;16.60;99.90;;;;;;4981285;28;19925;-86
2022/07/11 01:48:17;;;;;;;;;;;16.50;99.90;;;;;;4994789;28;19991;-86
2022/07/11 01:50:43;;;;;;;;;;;16.60;99.90;;;;;;4998416;28;20445;-86
2022/07/11 01:53:08;;;;;;;;;;;16.50;99.90;;;;;;4994377;28;19932;-86
2022/07/11 01:55:34;;;;;;;;;;;16.60;99.90;;;;;;4999059;28;19936;-86
2022/07/11 01:58:00;;;;;;;;;;;16.60;99.90;;;;;;5000746;28;19974;-86
2022/07/11 02:00:26;;;;;;;;;;;16.60;99.90;;;;;;4997994;28;20028;-86
2022/07/11 02:02:51;;;;;;;;;;;16.50;99.90;;;;;;4998040;28;19940;-86
2022/07/11 02:05:17;;;;;;;;;;;16.60;99.90;;;;;;4997381;28;19935;-84
2022/07/11 02:10:29;;;;;;;;;;;16.50;99.90;;;;;;4986667;28;20385;-85
2022/07/11 02:12:59;;;;;;;;;;;16.70;99.90;;;;;;5001562;28;19928;-86
2022/07/11 02:15:26;;;;;;;;;;;16.60;99.90;;;;;;4981286;28;20174;-85
2022/07/11 02:17:52;;;;;;;;;;;16.70;99.90;;;;;;4997548;28;19929;-85
2022/07/11 02:20:22;;;;;;;;;;;16.60;99.90;;;;;;4981551;28;20590;-85
2022/07/11 02:22:51;;;;;;;;;;;16.60;99.90;;;;;;4994210;28;19936;-85
2022/07/11 02:25:17;;;;;;;;;;;16.50;99.90;;;;;;4994904;28;20664;-84
2022/07/11 02:27:43;;;;;;;;;;;16.40;99.90;;;;;;4998367;28;19982;-86
2022/07/11 02:30:09;;;;;;;;;;;16.50;99.90;;;;;;4997489;28;19936;-86
2022/07/11 02:32:35;;;;;;;;;;;16.40;99.90;;;;;;4997420;28;19937;-85
2022/07/11 02:35:01;;;;;;;;;;;16.40;99.90;;;;;;4997510;28;19932;-85
2022/07/11 02:37:27;;;;;;;;;;;16.40;99.90;;;;;;5000817;28;19928;-85
2022/07/11 02:39:52;;;;;;;;;;;16.30;99.90;;;;;;4997060;28;19990;-86
2022/07/11 02:42:18;;;;;;;;;;;16.40;99.90;;;;;;5000276;28;19933;-85
2022/07/11 02:44:44;;;;;;;;;;;16.50;99.90;;;;;;5012268;28;19964;-84
2022/07/11 02:47:10;;;;;;;;;;;16.40;99.90;;;;;;4975865;28;19964;-84
2022/07/11 02:49:35;;;;;;;;;;;16.40;99.90;;;;;;4991893;28;20166;-84
2022/07/11 02:52:01;;;;;;;;;;;16.40;99.90;;;;;;4990566;28;19929;-84
2022/07/11 02:54:28;;;;;;;;;;;16.30;99.90;;;;;;4997698;28;20116;-84
2022/07/11 02:56:54;;;;;;;;;;;16.30;99.90;;;;;;4992081;28;19983;-85
2022/07/11 02:59:19;;;;;;;;;;;16.30;99.90;;;;;;4970912;28;20629;-85
2022/07/11 03:01:45;;;;;;;;;;;16.30;99.90;;;;;;4988896;28;19982;-84
2022/07/11 03:04:12;;;;;;;;;;;16.30;99.90;;;;;;4989791;28;19979;-84
2022/07/11 03:06:41;;;;;;;;;;;16.40;99.90;;;;;;4989697;28;19930;-84
2022/07/11 03:09:07;;;;;;;;;;;16.30;99.90;;;;;;4990242;28;19935;-84
2022/07/11 03:11:33;;;;;;;;;;;16.30;99.90;;;;;;4988763;28;20537;-84
2022/07/11 03:14:00;;;;;;;;;;;16.30;99.90;;;;;;4991482;28;19986;-85
2022/07/11 03:16:26;;;;;;;;;;;16.30;99.90;;;;;;4990493;28;19972;-84
2022/07/11 03:18:52;;;;;;;;;;;16.30;99.90;;;;;;4991701;28;19967;-84
2022/07/11 03:21:18;;;;;;;;;;;16.20;99.90;;;;;;4989934;28;19928;-85
2022/07/11 03:23:43;;;;;;;;;;;16.20;99.90;;;;;;4993120;28;20310;-84
2022/07/11 03:26:09;;;;;;;;;;;16.40;99.90;;;;;;4994484;28;19929;-84
2022/07/11 03:28:35;;;;;;;;;;;16.30;99.90;;;;;;4990717;28;19940;-84
2022/07/11 03:31:01;;;;;;;;;;;16.20;99.90;;;;;;4990774;28;19929;-85
2022/07/11 03:33:27;;;;;;;;;;;16.30;99.90;;;;;;4974091;28;19929;-85
2022/07/11 03:35:53;;;;;;;;;;;16.30;99.90;;;;;;4986860;28;19926;-85
2022/07/11 03:38:19;;;;;;;;;;;16.30;99.90;;;;;;4996078;28;19929;-83
2022/07/11 03:40:45;;;;;;;;;;;16.20;99.90;;;;;;4990885;28;19940;-84
2022/07/11 03:43:11;;;;;;;;;;;16.20;99.90;;;;;;4991565;28;19937;-85
2022/07/11 03:45:37;;;;;;;;;;;16.40;99.90;;;;;;4994984;28;20183;-85
2022/07/11 03:48:03;;;;;;;;;;;16.30;99.90;;;;;;5012031;28;19929;-86
2022/07/11 03:50:29;;;;;;;;;;;16.40;99.90;;;;;;5015352;28;20301;-85
2022/07/11 03:52:55;;;;;;;;;;;16.40;99.90;;;;;;5010983;28;19933;-83
2022/07/11 03:55:21;;;;;;;;;;;16.30;99.90;;;;;;5006480;28;20591;-86
2022/07/11 03:57:47;;;;;;;;;;;16.40;99.90;;;;;;5005701;28;19960;-85
2022/07/11 04:00:13;;;;;;;;;;;16.30;99.90;;;;;;5008958;28;19929;-85
2022/07/11 04:02:38;;;;;;;;;;;16.30;99.90;;;;;;5011385;28;19935;-85
2022/07/11 04:05:04;;;;;;;;;;;16.30;99.90;;;;;;5010721;28;19972;-86
2022/07/11 04:07:30;;;;;;;;;;;16.30;99.90;;;;;;5010509;28;20052;-85
2022/07/11 04:09:56;;;;;;;;;;;16.30;99.90;;;;;;5012274;28;19936;-85
2022/07/11 04:12:22;;;;;;;;;;;16.20;99.90;;;;;;4993251;28;19933;-84
2022/07/11 04:14:48;;;;;;;;;;;16.40;99.90;;;;;;5014592;28;19935;-84
2022/07/11 04:17:13;;;;;;;;;;;16.40;99.90;;;;;;5012357;28;19928;-85
2022/07/11 04:19:39;;;;;;;;;;;16.40;99.90;;;;;;5011258;28;19933;-84
2022/07/11 04:22:05;;;;;;;;;;;16.40;99.90;;;;;;5013387;28;20528;-85
2022/07/11 04:24:31;;;;;;;;;;;16.40;99.90;;;;;;5011374;28;19990;-85
2022/07/11 04:26:56;;;;;;;;;;;16.40;99.90;;;;;;5012154;28;19933;-85
2022/07/11 04:29:23;;;;;;;;;;;16.50;99.90;;;;;;5014486;28;19939;-86
2022/07/11 04:31:50;;;;;;;;;;;16.50;99.90;;;;;;5014108;28;19972;-86
2022/07/11 04:34:16;;;;;;;;;;;16.50;99.90;;;;;;5010254;28;19933;-86
2022/07/11 04:36:45;;;;;;;;;;;16.50;99.90;;;;;;5011607;28;19933;-85
2022/07/11 04:39:11;;;;;;;;;;;16.60;99.90;;;;;;5001632;28;19929;-86
2022/07/11 04:41:37;;;;;;;;;;;16.50;99.90;;;;;;5009987;28;20456;-86
2022/07/11 04:44:03;;;;;;;;;;;16.50;99.90;;;;;;4993206;28;19929;-85
2022/07/11 04:46:29;;;;;;;;;;;16.40;99.90;;;;;;5014668;28;19952;-85
2022/07/11 04:48:55;;;;;;;;;;;16.40;99.90;;;;;;5011460;28;19936;-85
2022/07/11 04:51:20;;;;;;;;;;;16.40;99.90;;;;;;5007523;28;20016;-85
2022/07/11 04:53:46;;;;;;;;;;;16.40;99.90;;;;;;5017639;28;20684;-85
2022/07/11 04:56:12;;;;;;;;;;;16.50;99.90;;;;;;5016424;28;20343;-84
2022/07/11 04:58:38;;;;;;;;;;;16.50;99.90;;;;;;5017466;28;21607;-85
2022/07/11 05:01:04;;;;;;;;;;;16.50;99.90;;;;;;5017917;28;20015;-86
2022/07/11 05:03:29;;;;;;;;;;;16.50;99.90;;;;;;5017732;28;19932;-85
2022/07/11 05:05:55;;;;;;;;;;;16.50;99.90;;;;;;5017377;28;20299;-86
2022/07/11 05:08:21;;;;;;;;;;;16.60;99.90;;;;;;5016281;28;19928;-86
2022/07/11 05:10:47;;;;;;;;;;;16.60;99.90;;;;;;5018095;28;20378;-85
2022/07/11 05:13:12;;;;;;;;;;;16.50;99.90;;;;;;5016258;28;20059;-85
2022/07/11 05:15:39;;;;;;;;;;;16.60;99.90;;;;;;5017943;28;20071;-85
2022/07/11 05:18:05;;;;;;;;;;;16.50;99.90;;;;;;5021801;28;20609;-86
2022/07/11 05:20:30;;;;;;;;;;;16.60;99.90;;;;;;5001662;28;20012;-86
2022/07/11 05:22:57;;;;;;;;;;;16.60;99.90;;;;;;5019043;28;19936;-86
2022/07/11 05:25:22;;;;;;;;;;;16.60;99.90;;;;;;5016299;28;20300;-86
2022/07/11 05:27:48;;;;;;;;;;;16.70;99.90;;;;;;5021533;28;20305;-86
2022/07/11 05:30:14;;;;;;;;;;;16.70;99.90;;;;;;4982496;28;19932;-86
2022/07/11 05:32:40;;;;;;;;;;;16.80;99.90;;;;;;5023187;28;19928;-86
2022/07/11 05:35:06;;;;;;;;;;;16.70;99.90;;;;;;5015300;28;19933;-86
2022/07/11 05:37:31;;;;;;;;;;;16.70;99.90;;;;;;5017698;28;19975;-86
2022/07/11 05:39:57;;;;;;;;;;;16.80;99.90;;;;;;5017197;28;20493;-84
2022/07/11 05:42:23;;;;;;;;;;;16.80;99.90;;;;;;5016987;28;19929;-86
2022/07/11 05:44:49;;;;;;;;;;;16.90;99.90;;;;;;5018865;28;19928;-86
2022/07/11 05:47:14;;;;;;;;;;;16.90;99.90;;;;;;5016161;28;19935;-85
2022/07/11 05:49:40;;;;;;;;;;;17.00;99.90;;;;;;5018795;28;19929;-86
2022/07/11 05:52:06;;;;;;;;;;;17.00;99.90;;;;;;5020391;28;19933;-85
2022/07/11 05:54:31;;;;;;;;;;;17.00;99.90;;;;;;5013844;28;20570;-85
2022/07/11 05:56:57;;;;;;;;;;;17.00;99.90;;;;;;5021669;28;19937;-87
2022/07/11 05:59:23;;;;;;;;;;;17.00;99.90;;;;;;5018853;28;19928;-85
2022/07/11 06:01:48;;;;;;;;;;;17.10;99.90;;;;;;5003636;28;19935;-85
2022/07/11 06:04:14;;;;;;;;;;;17.10;99.90;;;;;;5015476;28;20868;-85
2022/07/11 06:06:40;;;;;;;;;;;17.10;99.90;;;;;;5018979;28;20188;-86
2022/07/11 06:09:06;;;;;;;;;;;17.10;99.90;;;;;;5017415;28;19939;-85
2022/07/11 06:11:32;;;;;;;;;;;17.00;99.90;;;;;;5018339;28;20003;-85
2022/07/11 06:13:57;;;;;;;;;;;17.00;99.90;;;;;;5016739;28;19940;-84
2022/07/11 06:16:23;;;;;;;;;;;17.00;99.90;;;;;;5018070;28;19925;-85
2022/07/11 06:18:50;;;;;;;;;;;16.80;99.90;;;;;;5017921;28;20719;-85
2022/07/11 06:21:16;;;;;;;;;;;16.90;99.90;;;;;;5018877;28;19925;-86
2022/07/11 06:23:42;;;;;;;;;;;16.90;99.90;;;;;;5017098;28;20000;-86
2022/07/11 06:26:08;;;;;;;;;;;17.00;99.90;;;;;;5015142;28;19925;-85
2022/07/11 06:28:34;;;;;;;;;;;17.00;99.90;;;;;;4995646;28;20720;-86
2022/07/11 06:31:00;;;;;;;;;;;17.10;99.90;;;;;;5020509;28;19929;-85
2022/07/11 06:33:26;;;;;;;;;;;17.20;99.90;;;;;;5020471;28;19933;-86
2022/07/11 06:35:52;;;;;;;;;;;17.40;99.90;;;;;;5014280;28;21690;-86
2022/07/11 06:38:17;;;;;;;;;;;17.60;99.90;;;;;;4995391;28;19936;-85
2022/07/11 06:40:43;;;;;;;;;;;17.90;99.90;;;;;;5014712;28;20305;-86
2022/07/11 06:43:09;;;;;;;;;;;18.40;99.90;;;;;;5010506;28;20683;-83
2022/07/11 06:45:35;;;;;;;;;;;18.50;99.90;;;;;;5010370;28;19929;-85
2022/07/11 06:48:01;;;;;;;;;;;18.50;99.90;;;;;;5010512;28;19944;-84
2022/07/11 06:50:27;;;;;;;;;;;18.50;99.90;;;;;;5012741;28;19929;-85
2022/07/11 06:52:52;;;;;;;;;;;18.30;99.90;;;;;;5011644;28;19936;-84
2022/07/11 06:55:18;;;;;;;;;;;18.20;99.90;;;;;;5015172;28;19941;-84
2022/07/11 06:57:44;;;;;;;;;;;18.00;99.90;;;;;;5015001;28;19936;-85
2022/07/11 07:00:10;;;;;;;;;;;17.90;99.90;;;;;;5012385;28;19928;-85
2022/07/11 07:02:38;;;;;;;;;;;17.90;99.90;;;;;;5011336;28;19955;-85
2022/07/11 07:05:04;;;;;;;;;;;17.90;99.90;;;;;;5011058;28;19968;-85
2022/07/11 07:07:30;;;;;;;;;;;18.10;99.90;;;;;;4998765;28;19940;-83
2022/07/11 07:09:56;;;;;;;;;;;18.00;99.90;;;;;;5009392;28;20876;-84
2022/07/11 07:12:21;;;;;;;;;;;18.10;99.90;;;;;;5008087;28;19929;-83
2022/07/11 07:14:47;;;;;;;;;;;18.20;99.90;;;;;;5019448;28;19928;-84
2022/07/11 07:17:19;;;;;;;;;;;18.30;99.90;;;;;;5010334;28;20642;-85
2022/07/11 07:19:45;;;;;;;;;;;18.40;99.90;;;;;;5015587;28;19948;-85
2022/07/11 07:22:14;;;;;;;;;;;18.40;99.90;;;;;;5015430;28;20424;-85
2022/07/11 07:24:40;;;;;;;;;;;18.40;99.90;;;;;;5009160;28;19929;-85
2022/07/11 07:27:06;;;;;;;;;;;18.20;99.90;;;;;;4995751;28;20397;-85
2022/07/11 07:29:32;;;;;;;;;;;18.30;99.90;;;;;;4993255;28;20691;-85
2022/07/11 07:31:59;;;;;;;;;;;18.30;99.90;;;;;;5009058;28;19940;-85
2022/07/11 07:34:25;;;;;;;;;;;18.10;99.90;;;;;;4997785;28;19928;-86
2022/07/11 07:36:50;;;;;;;;;;;18.10;99.90;;;;;;5014855;28;20570;-85
2022/07/11 07:39:16;;;;;;;;;;;18.20;99.90;;;;;;5013711;28;20361;-85
2022/07/11 07:41:42;;;;;;;;;;;18.10;99.90;;;;;;5012331;28;19937;-86
2022/07/11 07:44:08;;;;;;;;;;;18.00;99.90;;;;;;5011767;28;19933;-85
2022/07/11 07:46:33;;;;;;;;;;;18.00;99.90;;;;;;5010072;28;19929;-86
2022/07/11 07:48:59;;;;;;;;;;;18.00;99.90;;;;;;5015161;28;19975;-85
2022/07/11 07:51:25;;;;;;;;;;;18.10;99.90;;;;;;5008124;28;19928;-86
2022/07/11 07:53:50;;;;;;;;;;;18.00;99.90;;;;;;4996196;28;20984;-86
2022/07/11 07:56:16;;;;;;;;;;;18.20;99.90;;;;;;5006620;28;19929;-86
2022/07/11 07:58:42;;;;;;;;;;;18.30;99.90;;;;;;5005046;28;20996;-86
2022/07/11 08:03:52;;;;;;;;;;;18.40;99.90;;;;;;5004738;28;20438;-84
2022/07/11 08:06:18;;;;;;;;;;;18.50;99.90;;;;;;4988960;28;19929;-84
2022/07/11 08:08:44;;;;;;;;;;;18.60;99.90;;;;;;4998043;28;19980;-85
2022/07/11 08:11:09;;;;;;;;;;;18.50;99.90;;;;;;4997370;28;19940;-86
2022/07/11 08:13:37;;;;;;;;;;;18.50;99.90;;;;;;5003929;28;19933;-85
2022/07/11 08:16:03;;;;;;;;;;;18.50;99.90;;;;;;5001168;28;19933;-83
2022/07/11 08:18:29;;;;;;;;;;;18.60;99.90;;;;;;4998485;28;19936;-86
2022/07/11 08:20:56;;;;;;;;;;;18.70;99.90;;;;;;5005560;28;20301;-85
2022/07/11 08:23:21;;;;;;;;;;;18.70;99.90;;;;;;5001065;28;19939;-85
2022/07/11 08:25:47;;;;;;;;;;;18.60;99.90;;;;;;4971779;28;19937;-86
2022/07/11 08:28:12;;;;;;;;;;;18.60;99.90;;;;;;4986510;28;19933;-84
2022/07/11 08:30:38;;;;;;;;;;;18.80;99.90;;;;;;5004413;28;19928;-85
2022/07/11 08:33:04;;;;;;;;;;;18.80;99.90;;;;;;5003215;28;20015;-86
2022/07/11 08:35:29;;;;;;;;;;;18.90;99.90;;;;;;5002377;28;20570;-84
2022/07/11 08:37:57;;;;;;;;;;;18.90;99.90;;;;;;5005140;28;20198;-87
2022/07/11 08:40:23;;;;;;;;;;;18.90;99.90;;;;;;5000403;28;19929;-84
2022/07/11 08:42:49;;;;;;;;;;;18.90;99.90;;;;;;4987742;28;21681;-86
2022/07/11 08:45:15;;;;;;;;;;;19.00;99.90;;;;;;4994951;28;20319;-86
2022/07/11 08:47:41;;;;;;;;;;;18.90;99.90;;;;;;4996824;28;20015;-86
2022/07/11 08:50:07;;;;;;;;;;;19.10;99.90;;;;;;4996784;28;20254;-86
2022/07/11 08:52:33;;;;;;;;;;;19.30;99.90;;;;;;4996989;28;20055;-87
2022/07/11 08:54:59;;;;;;;;;;;19.40;99.90;;;;;;5000035;28;20397;-86
2022/07/11 08:57:25;;;;;;;;;;;19.20;99.90;;;;;;4981595;28;20008;-86
2022/07/11 08:59:55;;;;;;;;;;;19.40;99.90;;;;;;4996034;28;19933;-86
2022/07/11 09:02:22;;;;;;;;;;;19.70;99.90;;;;;;5004866;28;19935;-86
2022/07/11 09:04:48;;;;;;;;;;;19.70;99.90;;;;;;5006537;28;19929;-86
2022/07/11 09:07:14;;;;;;;;;;;19.70;99.90;;;;;;5008563;28;19960;-86
2022/07/11 09:09:40;;;;;;;;;;;19.70;99.90;;;;;;5004900;28;19933;-87
2022/07/11 09:12:14;;;;;;;;;;;19.50;99.90;;;;;;5010401;28;19933;-85
2022/07/11 09:14:40;;;;;;;;;;;19.60;99.90;;;;;;5010901;28;19940;-86
2022/07/11 09:17:06;;;;;;;;;;;19.50;99.90;;;;;;5013369;28;19933;-85
2022/07/11 09:19:32;;;;;;;;;;;19.40;99.90;;;;;;5012141;28;21262;-87
2022/07/11 09:25:23;;;;;;;;;;;19.30;99.90;;;;;;5012456;28;19932;-86
2022/07/11 09:27:49;;;;;;;;;;;19.40;99.90;;;;;;4984603;28;19929;-84
2022/07/11 09:30:19;;;;;;;;;;;19.70;99.90;;;;;;5014568;28;20707;-87
2022/07/11 09:32:55;;;;;;;;;;;19.80;99.90;;;;;;5010466;28;20023;-86
2022/07/11 09:35:21;;;;;;;;;;;20.20;99.90;;;;;;5011861;28;19929;-86
2022/07/11 09:37:48;;;;;;;;;;;20.50;99.90;;;;;;5010620;28;19936;-87
2022/07/11 09:40:14;;;;;;;;;;;20.80;99.90;;;;;;5009090;28;19929;-88
2022/07/11 09:42:54;;;;;;;;;;;20.60;99.90;;;;;;5013970;28;20681;-86
2022/07/11 09:45:20;;;;;;;;;;;20.50;99.90;;;;;;5012690;28;19933;-87
2022/07/11 09:47:49;;;;;;;;;;;20.20;99.90;;;;;;5011456;28;19929;-85
2022/07/11 09:50:22;;;;;;;;;;;20.20;99.90;;;;;;5010375;28;20302;-85
2022/07/11 09:53:08;;;;;;;;;;;20.00;99.90;;;;;;5012445;28;20546;-87
2022/07/11 09:55:35;;;;;;;;;;;19.90;99.90;;;;;;4985402;28;19933;-84
2022/07/11 09:58:04;;;;;;;;;;;19.70;99.90;;;;;;5001261;28;19943;-87
2022/07/11 10:00:31;;;;;;;;;;;19.60;99.90;;;;;;4983894;28;19929;-87
2022/07/11 10:02:58;;;;;;;;;;;19.40;99.90;;;;;;4985787;28;21108;-87
2022/07/11 10:05:24;;;;;;;;;;;19.50;99.90;;;;;;4999773;28;19932;-86
2022/07/11 10:07:50;;;;;;;;;;;19.50;99.90;;;;;;4998375;28;20008;-86
2022/07/11 10:10:19;;;;;;;;;;;19.50;99.90;;;;;;5001255;28;20586;-86
2022/07/11 10:12:46;;;;;;;;;;;19.60;99.90;;;;;;4996749;28;19929;-86
2022/07/11 10:15:14;;;;;;;;;;;19.50;99.90;;;;;;5007076;28;19979;-87
2022/07/11 10:17:44;;;;;;;;;;;19.70;99.90;;;;;;4990162;28;19935;-87
2022/07/11 10:20:15;;;;;;;;;;;19.70;99.90;;;;;;5010402;28;20406;-86
2022/07/11 10:22:47;;;;;;;;;;;19.90;99.90;;;;;;4990523;28;20024;-86
2022/07/11 10:25:19;;;;;;;;;;;20.00;99.90;;;;;;5022161;28;19929;-86
2022/07/11 10:28:03;;;;;;;;;;;20.00;99.90;;;;;;5004905;28;19929;-87
2022/07/11 10:30:49;;;;;;;;;;;20.00;99.90;;;;;;5007347;28;19929;-86
2022/07/11 10:33:15;;;;;;;;;;;20.00;99.90;;;;;;5010283;28;19932;-87
2022/07/11 10:35:43;;;;;;;;;;;19.90;99.90;;;;;;5008200;28;20027;-87
2022/07/11 10:38:08;;;;;;;;;;;20.00;99.90;;;;;;5010512;28;19929;-86
2022/07/11 10:40:40;;;;;;;;;;;20.10;99.90;;;;;;5005716;28;20888;-86
2022/07/11 10:43:06;;;;;;;;;;;20.50;99.90;;;;;;5007502;28;20441;-86
2022/07/11 10:45:48;;;;;;;;;;;20.40;99.90;;;;;;5011074;28;19929;-85
2022/07/11 10:48:14;;;;;;;;;;;20.40;99.90;;;;;;4990606;28;20127;-86
2022/07/11 10:50:40;;;;;;;;;;;20.50;99.90;;;;;;5010669;28;20424;-86
2022/07/11 10:53:09;;;;;;;;;;;20.50;99.90;;;;;;5010991;28;20405;-85
2022/07/11 10:55:47;;;;;;;;;;;20.70;99.90;;;;;;5011285;28;20405;-86
2022/07/11 10:58:23;;;;;;;;;;;20.70;99.90;;;;;;5006869;28;20024;-85
2022/07/11 11:01:06;;;;;;;;;;;20.70;99.90;;;;;;4987167;28;20563;-86
2022/07/11 11:03:32;;;;;;;;;;;20.60;99.90;;;;;;5009104;28;19929;-87
2022/07/11 11:05:58;;;;;;;;;;;20.50;99.90;;;;;;4991232;28;19987;-86
2022/07/11 11:08:36;;;;;;;;;;;20.60;99.90;;;;;;4991357;28;19936;-86
2022/07/11 11:11:20;;;;;;;;;;;20.50;99.90;;;;;;4993232;28;19940;-88
2022/07/11 11:13:46;;;;;;;;;;;20.40;99.90;;;;;;5004120;28;20406;-86
2022/07/11 11:16:18;;;;;;;;;;;20.70;99.90;;;;;;5008959;28;20314;-85
2022/07/11 11:18:44;;;;;;;;;;;20.70;99.90;;;;;;5007294;28;19929;-86
2022/07/11 11:21:28;;;;;;;;;;;20.90;99.90;;;;;;4987657;28;19935;-83
2022/07/11 11:24:02;;;;;;;;;;;20.50;99.90;;;;;;4991840;28;19939;-86
2022/07/11 11:26:43;;;;;;;;;;;20.90;99.90;;;;;;5022463;28;20358;-87
2022/07/11 11:29:08;;;;;;;;;;;21.00;99.90;;;;;;5010304;28;20582;-84
2022/07/11 11:31:34;;;;;;;;;;;21.20;99.90;;;;;;5011489;28;19925;-87
2022/07/11 11:34:01;;;;;;;;;;;21.50;99.90;;;;;;4979342;28;19928;-90
2022/07/11 11:36:30;;;;;;;;;;;21.50;99.90;;;;;;4995908;28;20190;-86
2022/07/11 11:38:55;;;;;;;;;;;21.60;99.90;;;;;;5013556;28;19966;-86
2022/07/11 11:41:29;;;;;;;;;;;21.80;99.90;;;;;;4987959;28;20699;-84
2022/07/11 11:43:58;;;;;;;;;;;22.10;99.90;;;;;;5001177;28;19929;-86
2022/07/11 11:46:24;;;;;;;;;;;22.00;99.90;;;;;;5008077;28;19955;-86
2022/07/11 11:48:54;;;;;;;;;;;22.00;99.90;;;;;;5001200;28;19933;-87
2022/07/11 11:51:20;;;;;;;;;;;21.90;99.90;;;;;;5002497;28;19933;-87
2022/07/11 11:53:56;;;;;;;;;;;21.60;99.90;;;;;;4999557;28;19933;-86
2022/07/11 11:56:36;;;;;;;;;;;21.80;99.90;;;;;;5020780;28;20649;-85
2022/07/11 11:59:11;;;;;;;;;;;22.30;99.90;;;;;;5006385;28;19932;-84
2022/07/11 12:01:38;;;;;;;;;;;22.50;99.90;;;;;;4974669;28;19929;-85
2022/07/11 12:04:11;;;;;;;;;;;23.10;99.90;;;;;;5004838;28;19939;-84
2022/07/11 12:06:38;;;;;;;;;;;22.70;99.90;;;;;;5002048;28;19929;-86
2022/07/11 12:09:06;;;;;;;;;;;22.80;99.90;;;;;;5013690;28;20063;-86
2022/07/11 12:11:32;;;;;;;;;;;23.10;99.90;;;;;;5005268;28;20682;-86
2022/07/11 12:13:59;;;;;;;;;;;23.20;99.90;;;;;;5010085;28;20526;-86
2022/07/11 12:16:41;;;;;;;;;;;23.10;99.90;;;;;;5011212;28;19929;-87
2022/07/11 12:19:14;;;;;;;;;;;22.90;99.90;;;;;;5026599;28;19932;-85
2022/07/11 12:21:46;;;;;;;;;;;23.00;99.90;;;;;;5006534;28;20955;-86
2022/07/11 12:24:15;;;;;;;;;;;22.70;99.90;;;;;;5010633;28;19929;-85
2022/07/11 12:26:41;;;;;;;;;;;22.50;99.90;;;;;;5016990;28;20018;-86
2022/07/11 12:29:19;;;;;;;;;;;22.50;99.90;;;;;;5008222;28;20452;-85
2022/07/11 12:31:49;;;;;;;;;;;22.10;99.90;;;;;;5008210;28;19929;-90
2022/07/11 12:34:15;;;;;;;;;;;22.40;99.90;;;;;;5013057;28;19933;-86
2022/07/11 12:36:41;;;;;;;;;;;22.30;99.90;;;;;;5014812;28;19929;-85
2022/07/11 12:39:08;;;;;;;;;;;22.40;99.90;;;;;;5009462;28;19929;-88
2022/07/11 12:41:34;;;;;;;;;;;22.60;99.90;;;;;;4991407;28;19936;-87
2022/07/11 12:46:47;;;;;;;;;;;22.70;99.90;;;;;;5013095;28;19936;-87
2022/07/11 12:49:13;;;;;;;;;;;22.70;99.90;;;;;;5014153;28;19936;-87
2022/07/11 12:51:40;;;;;;;;;;;22.80;99.90;;;;;;5012612;28;19929;-87
2022/07/11 12:54:11;;;;;;;;;;;23.00;99.90;;;;;;5004031;28;19971;-87
2022/07/11 12:56:36;;;;;;;;;;;23.00;99.90;;;;;;5014711;28;20438;-87
2022/07/11 12:59:03;;;;;;;;;;;23.10;99.90;;;;;;5018116;28;19931;-89
2022/07/11 13:01:29;;;;;;;;;;;23.10;99.90;;;;;;4978882;28;19929;-88
2022/07/11 13:03:55;;;;;;;;;;;22.90;99.90;;;;;;5013533;28;20458;-87
2022/07/11 13:08:42;;;;;;;;;;;22.90;99.90;;;;;;4997349;28;20636;-86
2022/07/11 13:09:07;;;;;;;;;;;23.10;99.90;;;;;;5014673;28;20372;-86
2022/07/11 13:11:32;;;;;;;;;;;23.00;99.90;;;;;;5014706;28;19928;-87
2022/07/11 13:13:58;;;;;;;;;;;22.90;99.90;;;;;;4976946;28;20244;-87
2022/07/11 13:16:24;;;;;;;;;;;23.10;99.90;;;;;;4999197;28;19929;-89
2022/07/11 13:18:49;;;;;;;;;;;23.00;99.90;;;;;;4987103;28;20014;-88
2022/07/11 13:21:16;;;;;;;;;;;22.90;99.90;;;;;;5009707;28;20366;-88
2022/07/11 13:23:41;;;;;;;;;;;23.10;99.90;;;;;;5010339;28;20020;-86
2022/07/11 13:26:08;;;;;;;;;;;23.00;99.90;;;;;;5008820;28;19928;-87
2022/07/11 13:28:34;;;;;;;;;;;23.10;99.90;;;;;;5009934;28;20083;-86
2022/07/11 13:31:00;;;;;;;;;;;23.10;99.90;;;;;;5012972;28;20375;-88
2022/07/11 13:33:25;;;;;;;;;;;23.10;99.90;;;;;;4994381;28;19937;-86
2022/07/11 13:35:52;;;;;;;;;;;23.30;99.90;;;;;;5003468;28;20641;-87
2022/07/11 13:38:18;;;;;;;;;;;23.50;99.90;;;;;;5012795;28;19936;-85
2022/07/11 13:40:44;;;;;;;;;;;23.10;99.90;;;;;;4997528;28;19964;-85
2022/07/11 13:43:11;;;;;;;;;;;23.00;99.90;;;;;;5009396;28;20015;-87
2022/07/11 13:45:38;;;;;;;;;;;23.20;99.90;;;;;;5008374;28;19929;-88
2022/07/11 13:48:04;;;;;;;;;;;23.20;99.90;;;;;;4990160;28;20298;-87
2022/07/11 13:50:30;;;;;;;;;;;23.40;99.90;;;;;;5011889;28;19968;-85
2022/07/11 13:52:55;;;;;;;;;;;23.50;99.90;;;;;;5008016;28;20410;-88
2022/07/11 13:55:31;;;;;;;;;;;23.00;99.90;;;;;;5011925;28;20436;-88
2022/07/11 13:57:57;;;;;;;;;;;22.80;99.90;;;;;;4995426;28;19930;-89
2022/07/11 14:00:23;;;;;;;;;;;22.90;99.90;;;;;;5003805;28;19929;-87
2022/07/11 14:02:49;;;;;;;;;;;23.30;99.90;;;;;;4983858;28;19935;-88
2022/07/11 14:05:15;;;;;;;;;;;23.30;99.90;;;;;;4980447;28;19933;-85
2022/07/11 14:07:41;;;;;;;;;;;23.10;99.90;;;;;;4985139;28;19970;-87
2022/07/11 14:10:08;;;;;;;;;;;22.90;99.90;;;;;;4989180;28;20008;-88
2022/07/11 14:12:34;;;;;;;;;;;23.20;99.90;;;;;;5005975;28;19967;-88
2022/07/11 14:14:59;;;;;;;;;;;23.00;99.90;;;;;;5014322;28;20397;-87
2022/07/11 14:17:25;;;;;;;;;;;23.20;99.90;;;;;;5011078;28;19936;-88
2022/07/11 14:19:55;;;;;;;;;;;22.90;99.90;;;;;;5017504;28;20702;-88
2022/07/11 14:22:21;;;;;;;;;;;23.10;99.90;;;;;;4995885;28;20364;-86
2022/07/11 14:24:47;;;;;;;;;;;22.90;99.90;;;;;;4998401;28;19933;-87
2022/07/11 14:27:13;;;;;;;;;;;22.80;99.90;;;;;;5030721;28;19929;-87